Time;durP1;ratioP1;P1;durP2;ratioP2;P2;SDS_P1;SDS_P2;PMS_P1;PMS_P2;Temp;Humidity;BMP_temperature;BMP_pressure;BME280_temperature;BME280_humidity;BME280_pressure;Samples;Min_cycle;Max_cycle;Signal;HPM_P1;HPM_P2
2023/06/13 00:07:53;;;;;;;9.77;4.28;;;;;;;12.64;52.94;100226.53;30499223;28;98518;-66
2023/06/13 00:22:56;;;;;;;6.65;4.45;;;;;;;12.35;54.10;100228.16;30498622;28;110752;-66
2023/06/13 00:37:56;;;;;;;10.30;4.43;;;;;;;11.93;55.58;100200.94;30497390;28;96892;-66
2023/06/13 00:52:59;;;;;;;6.95;3.90;;;;;;;11.56;56.36;100188.34;30495964;28;96855;-66
2023/06/13 01:08:01;;;;;;;6.90;4.53;;;;;;;11.29;58.37;100209.16;30494916;28;96787;-66
2023/06/13 01:23:17;;;;;;;9.93;5.27;;;;;;;11.03;58.94;100188.97;30492909;28;97305;-65
2023/06/13 01:38:18;;;;;;;7.70;5.13;;;;;;;10.90;59.89;100204.69;30492934;28;97556;-66
2023/06/13 01:53:30;;;;;;;9.03;5.10;;;;;;;10.59;60.33;100187.63;30491231;28;96727;-66
2023/06/13 02:08:31;;;;;;;7.03;5.17;;;;;;;10.32;61.69;100202.13;30490710;28;96720;-66
2023/06/13 02:23:31;;;;;;;8.77;6.15;;;;;;;9.97;62.40;100204.94;30489583;28;96669;-66
2023/06/13 02:38:32;;;;;;;8.02;5.70;;;;;;;9.70;62.85;100187.47;30507405;28;97243;-66
2023/06/13 02:53:32;;;;;;;12.10;6.53;;;;;;;9.56;63.71;100186.28;30506938;28;96785;-66
2023/06/13 03:08:33;;;;;;;7.00;5.38;;;;;;;9.60;64.16;100181.50;30503418;28;96791;-66
2023/06/13 03:23:33;;;;;;;11.55;6.20;;;;;;;9.98;64.49;100181.84;30502362;28;97567;-66
2023/06/13 03:38:33;;;;;;;11.23;6.30;;;;;;;10.48;64.22;100180.84;30498829;28;96692;-65
2023/06/13 03:53:34;;;;;;;10.43;5.88;;;;;;;10.95;64.14;100197.84;30496689;28;113523;-66
2023/06/13 04:08:38;;;;;;;11.00;5.50;;;;;;;11.40;64.07;100171.47;30493351;28;96742;-66
2023/06/13 04:23:38;;;;;;;11.60;5.50;;;;;;;11.68;63.54;100189.59;30496021;28;96789;-66
2023/06/13 04:38:40;;;;;;;10.55;5.80;;;;;;;12.07;63.11;100193.16;30494891;28;98826;-66
2023/06/13 04:53:40;;;;;;;7.53;5.30;;;;;;;12.71;62.60;100190.03;30493445;28;96723;-66
2023/06/13 05:08:40;;;;;;;14.13;6.72;;;;;;;13.32;61.49;100183.63;30488737;28;117850;-67
2023/06/13 05:23:41;;;;;;;7.90;5.47;;;;;;;13.66;60.54;100174.13;30488879;28;102337;-65
2023/06/13 05:38:42;;;;;;;10.80;4.70;;;;;;;13.88;59.36;100188.34;30486610;28;97296;-65
2023/06/13 05:53:42;;;;;;;8.60;4.63;;;;;;;14.44;58.71;100187.53;30486679;28;111990;-67
2023/06/13 06:08:42;;;;;;;7.55;3.97;;;;;;;15.07;56.49;100175.97;30501311;28;97269;-66
2023/06/13 06:23:44;;;;;;;6.33;3.60;;;;;;;15.62;55.77;100167.84;30589005;28;96772;-66
2023/06/13 06:38:44;;;;;;;8.23;3.88;;;;;;;16.24;54.42;100155.09;30624395;28;102924;-66
2023/06/13 06:53:44;;;;;;;8.18;3.08;;;;;;;16.94;52.54;100156.41;30561547;28;107084;-65
2023/06/13 07:08:45;;;;;;;8.50;3.92;;;;;;;17.17;50.19;100153.22;30500274;28;105336;-66
2023/06/13 07:23:45;;;;;;;8.07;2.72;;;;;;;17.76;48.12;100140.41;30500071;28;97065;-68
2023/06/13 07:38:45;;;;;;;6.68;3.08;;;;;;;18.05;45.72;100148.09;30499552;28;110452;-66
2023/06/13 07:53:46;;;;;;;10.40;2.95;;;;;;;18.98;43.98;100161.69;30498036;28;96948;-64
2023/06/13 08:08:46;;;;;;;8.20;2.25;;;;;;;19.80;42.55;100136.88;30495841;28;107310;-67
2023/06/13 08:23:46;;;;;;;14.45;2.25;;;;;;;20.27;38.97;100126.09;30478175;28;112099;-67
2023/06/13 08:38:47;;;;;;;4.20;1.98;;;;;;;20.66;36.91;100130.16;30494415;28;97041;-67
2023/06/13 08:53:54;;;;;;;6.30;2.40;;;;;;;21.96;34.41;100130.41;30491283;28;97208;-66
2023/06/13 09:08:56;;;;;;;3.73;2.00;;;;;;;22.18;33.18;100139.69;30490194;28;97812;-66
2023/06/13 09:23:57;;;;;;;5.60;1.93;;;;;;;22.48;33.89;100139.31;30486125;28;97328;-66
2023/06/13 09:38:59;;;;;;;4.70;2.10;;;;;;;23.29;33.34;100133.28;30491802;28;98263;-65
2023/06/13 09:54:00;;;;;;;4.37;2.70;;;;;;;23.43;33.88;100113.84;30491312;28;96742;-65
2023/06/13 10:09:00;;;;;;;;;;;;;;;24.88;32.36;100124.59;30491923;28;97284;-66
2023/06/13 10:24:02;;;;;;;;;;;;;;;25.37;29.96;100117.94;30472744;28;98362;-66
2023/06/13 10:39:20;;;;;;;4.70;2.10;;;;;;;25.53;28.67;100110.56;30487477;28;98929;-67
2023/06/13 10:54:25;;;;;;;2.73;1.63;;;;;;;26.46;27.82;100110.47;30495635;28;97485;-65
2023/06/13 11:09:26;;;;;;;4.33;1.90;;;;;;;25.92;27.56;100084.66;30509112;28;96976;-67
2023/06/13 11:24:28;;;;;;;6.05;1.90;;;;;;;25.37;28.58;100087.09;30503087;28;97377;-65
2023/06/13 11:39:37;;;;;;;6.10;1.90;;;;;;;25.94;28.81;100077.78;30504010;28;96818;-66
2023/06/13 11:54:40;;;;;;;4.37;2.50;;;;;;;25.94;28.83;100066.88;30497986;28;96804;-66
2023/06/13 12:09:42;;;;;;;6.70;2.17;;;;;;;25.78;28.61;100059.81;30495206;28;97556;-66
2023/06/13 12:24:43;;;;;;;3.30;1.70;;;;;;;26.63;27.74;100055.50;30497276;28;97323;-66
2023/06/13 12:40:06;;;;;;;4.78;2.10;;;;;;;26.61;27.89;100031.16;30483040;28;96807;-66
2023/06/13 12:55:07;;;;;;;3.97;2.30;;;;;;;25.81;28.67;100026.53;30525809;28;97256;-65
2023/06/13 13:10:08;;;;;;;3.40;2.20;;;;;;;25.36;29.57;100028.19;30546175;28;97410;-65
2023/06/13 13:25:09;;;;;;;3.27;2.20;;;;;;;24.82;29.95;100028.41;30551163;28;97651;-65
2023/06/13 13:40:09;;;;;;;4.22;2.00;;;;;;;25.04;29.67;100013.72;30550434;28;96904;-65
2023/06/13 13:55:10;;;;;;;4.97;1.90;;;;;;;24.81;30.24;100009.63;30544399;28;97411;-66
2023/06/13 14:10:11;;;;;;;11.00;2.78;;;;;;;23.92;31.17;100004.91;30560366;28;97752;-65
2023/06/13 14:25:11;;;;;;;5.38;2.10;;;;;;;23.47;31.61;100007.03;30532379;28;97801;-65
2023/06/13 14:40:11;;;;;;;6.20;2.17;;;;;;;23.07;32.37;100007.47;30528031;28;97953;-68
2023/06/13 14:55:12;;;;;;;3.92;2.38;;;;;;;22.64;32.46;100010.84;30503706;28;96777;-67
2023/06/13 15:10:13;;;;;;;6.18;2.75;;;;;;;22.55;32.74;100004.22;30500100;28;97123;-69
2023/06/13 15:25:13;;;;;;;4.00;2.30;;;;;;;22.19;32.75;100002.97;30501636;28;96778;-67
2023/06/13 15:40:14;;;;;;;3.47;2.10;;;;;;;21.75;32.95;99998.31;30499599;28;97283;-65
2023/06/13 15:55:15;;;;;;;4.53;2.30;;;;;;;21.48;33.63;100001.69;30499235;28;96615;-65
2023/06/13 16:10:15;;;;;;;5.10;2.10;;;;;;;21.28;33.90;99994.88;30491626;28;97069;-65
2023/06/13 16:25:16;;;;;;;6.15;2.33;;;;;;;21.22;34.41;100006.69;30491019;28;97263;-68
2023/06/13 16:40:16;;;;;;;2.87;1.90;;;;;;;21.09;35.32;100009.69;30482609;28;97876;-68
2023/06/13 16:55:17;;;;;;;3.10;1.83;;;;;;;21.00;35.21;100013.91;30481330;28;96790;-69
2023/06/13 17:10:17;;;;;;;4.20;2.07;;;;;;;20.54;36.09;100011.91;30482213;28;97648;-67
2023/06/13 17:25:17;;;;;;;6.83;2.20;;;;;;;19.83;37.23;100036.38;30481386;28;97260;-70
2023/06/13 17:40:18;;;;;;;7.10;1.85;;;;;;;19.07;38.40;100030.75;30479525;28;107224;-69
2023/06/13 17:55:18;;;;;;;9.18;2.00;;;;;;;18.33;40.04;100047.00;30474739;28;98396;-69
2023/06/13 18:10:23;;;;;;;6.03;2.25;;;;;;;17.67;41.36;100050.13;30504109;28;96858;-68
2023/06/13 18:25:24;;;;;;;5.40;2.23;;;;;;;17.07;42.93;100055.94;30503019;28;96964;-70
2023/06/13 18:40:25;;;;;;;6.25;2.50;;;;;;;16.53;44.34;100056.19;30507162;28;97555;-70
2023/06/13 18:55:25;;;;;;;3.17;2.03;;;;;;;16.01;45.18;100068.75;30504424;28;97222;-67
2023/06/13 19:10:26;;;;;;;3.80;2.60;;;;;;;15.53;46.50;100072.44;30502641;28;96999;-67
2023/06/13 19:25:26;;;;;;;5.55;2.50;;;;;;;15.11;47.68;100095.91;30483573;28;109448;-71
2023/06/13 19:40:27;;;;;;;6.03;2.80;;;;;;;14.72;48.78;100114.31;30500833;28;96709;-70
2023/06/13 19:55:28;;;;;;;4.07;2.63;;;;;;;14.60;49.66;100119.41;30467961;28;97407;-77
2023/06/13 20:10:29;;;;;;;4.55;3.00;;;;;;;14.64;50.72;100126.06;30369536;28;97551;-67
2023/06/13 20:25:29;;;;;;;6.88;3.00;;;;;;;14.60;51.12;100156.09;30369146;28;102358;-66
2023/06/13 20:40:29;;;;;;;6.25;3.50;;;;;;;14.37;51.77;100163.38;30368294;28;96846;-67
2023/06/13 20:55:31;;;;;;;6.80;4.13;;;;;;;14.16;52.47;100169.63;30366626;28;96742;-68
2023/06/13 21:10:31;;;;;;;7.67;3.97;;;;;;;13.96;53.32;100179.34;30465411;28;96911;-67
2023/06/13 21:25:31;;;;;;;6.18;4.00;;;;;;;13.65;54.02;100189.34;30492854;28;99231;-68
2023/06/13 21:40:32;;;;;;;6.75;3.80;;;;;;;13.39;54.78;100197.94;30490371;28;97452;-68
2023/06/13 21:55:32;;;;;;;6.32;3.75;;;;;;;13.19;55.50;100193.16;30490769;28;103714;-67
2023/06/13 22:10:36;;;;;;;6.55;3.67;;;;;;;12.79;56.04;100192.63;30489928;28;97123;-68
2023/06/13 22:25:36;;;;;;;7.60;4.30;;;;;;;12.44;57.96;100196.84;30489741;28;96841;-68
2023/06/13 22:40:37;;;;;;;7.50;4.45;;;;;;;12.29;58.19;100195.00;30488578;28;98374;-69
2023/06/13 22:55:37;;;;;;;7.70;3.97;;;;;;;12.18;59.05;100196.25;30507173;28;96682;-67
2023/06/13 23:10:38;;;;;;;8.02;4.65;;;;;;;11.93;59.90;100200.94;30506075;28;100672;-68
2023/06/13 23:25:38;;;;;;;6.90;4.93;;;;;;;11.76;60.55;100202.88;30505477;28;96915;-67
2023/06/13 23:40:38;;;;;;;9.88;5.80;;;;;;;11.58;61.08;100189.03;30486919;28;101583;-67
2023/06/13 23:55:41;;;;;;;7.80;4.22;;;;;;;11.33;61.51;100190.00;30483961;28;106294;-68
